Time;durP1;ratioP1;P1;durP2;ratioP2;P2;SDS_P1;SDS_P2;PMS_P1;PMS_P2;Temp;Humidity;BMP_temperature;BMP_pressure;BME280_temperature;BME280_humidity;BME280_pressure;Samples;Min_cycle;Max_cycle;Signal;HPM_P1;HPM_P2
2023/07/10 00:03:33;;;;;;;;;;;;;;;16.97;82.69;98097.16;10326544;28;19944;-47
2023/07/10 00:08:31;;;;;;;;;;;;;;;16.86;83.37;98106.13;10327204;28;20419;-52
2023/07/10 00:13:30;;;;;;;;;;;;;;;16.75;84.48;98100.22;10326998;28;19917;-51
2023/07/10 00:18:29;;;;;;;;;;;;;;;16.62;84.98;98098.72;10328509;28;19924;-51
2023/07/10 00:23:28;;;;;;;;;;;;;;;16.59;84.72;98097.03;10329449;28;19919;-48
2023/07/10 00:28:27;;;;;;;;;;;;;;;16.56;84.48;98088.34;10329253;28;19967;-51
2023/07/10 00:33:25;;;;;;;;;;;;;;;16.54;84.35;98092.78;10329389;28;20380;-48
2023/07/10 00:38:31;;;;;;;;;;;;;;;16.51;84.47;98104.16;10329214;28;19913;-51
2023/07/10 00:43:29;;;;;;;;;;;;;;;16.39;85.17;98107.03;10328569;28;19952;-51
2023/07/10 00:48:32;;;;;;;;;;;;;;;16.32;85.80;98110.66;10329511;28;19917;-51
2023/07/10 00:53:32;;;;;;;;;;;;;;;16.13;86.19;98105.72;10328724;28;19972;-50
2023/07/10 00:58:35;;;;;;;;;;;;;;;16.01;86.73;98095.50;10328995;28;19955;-51
2023/07/10 01:03:35;;;;;;;;;;;;;;;15.93;86.94;98095.63;10328719;28;19949;-51
2023/07/10 01:08:35;;;;;;;;;;;;;;;15.90;86.83;98085.19;10328219;28;19956;-50
2023/07/10 01:13:37;;;;;;;;;;;;;;;15.88;86.83;98092.22;10327742;28;19960;-52
2023/07/10 01:18:37;;;;;;;;;;;;;;;15.84;86.99;98103.63;10325656;28;20535;-51
2023/07/10 01:23:36;;;;;;;;;;;;;;;15.77;88.25;98102.81;10324308;28;20403;-49
2023/07/10 01:28:34;;;;;;;;;;;;;;;15.71;88.46;98096.81;10324563;28;20015;-48
2023/07/10 01:33:42;;;;;;;;;;;;;;;15.70;88.20;98103.81;10324331;28;19921;-48
2023/07/10 01:38:47;;;;;;;;;;;;;;;15.72;88.27;98099.44;10324718;28;20534;-52
2023/07/10 01:43:46;;;;;;;;;;;;;;;15.75;88.03;98095.91;10323439;28;19995;-48
2023/07/10 01:48:45;;;;;;;;;;;;;;;15.74;87.88;98096.75;10325041;28;20002;-51
2023/07/10 01:53:44;;;;;;;;;;;;;;;15.74;88.00;98100.28;10323859;28;20039;-51
2023/07/10 01:58:43;;;;;;;;;;;;;;;15.68;88.29;98105.59;10324095;28;20015;-49
2023/07/10 02:03:42;;;;;;;;;;;;;;;15.63;88.58;98107.41;10323560;28;20025;-48
2023/07/10 02:08:41;;;;;;;;;;;;;;;15.52;88.71;98115.41;10323489;28;19960;-49
2023/07/10 02:13:39;;;;;;;;;;;;;;;15.49;88.57;98110.25;10323248;28;20277;-49
2023/07/10 02:18:38;;;;;;;;;;;;;;;15.43;88.61;98113.81;10326338;28;20016;-51
2023/07/10 02:23:37;;;;;;;;;;;;;;;15.51;88.76;98116.31;10330808;28;19995;-49
2023/07/10 02:28:36;;;;;;;;;;;;;;;15.48;88.54;98108.50;10329249;28;19960;-49
2023/07/10 02:33:35;;;;;;;;;;;;;;;15.49;88.18;98120.72;10330737;28;20283;-49
2023/07/10 02:38:34;;;;;;;;;;;;;;;15.45;88.66;98124.25;10331180;28;19913;-49
2023/07/10 02:43:32;;;;;;;;;;;;;;;15.41;88.56;98112.97;10330329;28;20435;-49
2023/07/10 02:48:31;;;;;;;;;;;;;;;15.38;88.47;98112.16;10330396;28;19976;-50
2023/07/10 02:53:30;;;;;;;;;;;;;;;15.36;88.72;98113.91;10329664;28;20420;-48
2023/07/10 02:58:29;;;;;;;;;;;;;;;15.35;88.80;98127.91;10329783;28;19956;-50
2023/07/10 03:03:28;;;;;;;;;;;;;;;15.36;89.29;98116.53;10329535;28;19963;-50
2023/07/10 03:08:27;;;;;;;;;;;;;;;15.30;89.09;98124.50;10329574;28;20261;-48
2023/07/10 03:13:26;;;;;;;;;;;;;;;15.32;89.17;98123.56;10328808;28;20071;-51
2023/07/10 03:18:24;;;;;;;;;;;;;;;14.82;88.79;98029.28;10329348;28;20008;-50
2023/07/10 03:23:23;;;;;;;;;;;;;;;15.39;88.74;98126.97;10328824;28;20016;-49
2023/07/10 03:28:22;;;;;;;;;;;;;;;15.47;88.47;98127.72;10329595;28;19963;-48
2023/07/10 03:33:21;;;;;;;;;;;;;;;15.50;88.69;98135.50;10327250;28;19921;-48
2023/07/10 03:38:20;;;;;;;;;;;;;;;15.57;88.67;98144.97;10328790;28;19919;-48
2023/07/10 03:43:19;;;;;;;;;;;;;;;15.70;88.30;98148.28;10327728;28;20014;-48
2023/07/10 03:48:18;;;;;;;;;;;;;;;15.78;87.97;98145.56;10327783;28;19917;-49
2023/07/10 03:53:16;;;;;;;;;;;;;;;15.72;88.27;98149.13;10327845;28;19917;-50
2023/07/10 03:58:17;;;;;;;;;;;;;;;15.68;88.08;98148.31;10327489;28;19913;-48
2023/07/10 04:03:16;;;;;;;;;;;;;;;15.79;87.59;98150.81;10327038;28;19956;-51
2023/07/10 04:08:15;;;;;;;;;;;;;;;15.94;86.62;98154.91;10327618;28;19975;-51
2023/07/10 04:13:14;;;;;;;;;;;;;;;15.91;86.96;98156.75;10327313;28;20011;-51
2023/07/10 04:18:12;;;;;;;;;;;;;;;15.91;86.85;98160.22;10326834;28;20234;-50
2023/07/10 04:23:11;;;;;;;;;;;;;;;15.90;87.11;98152.38;10326353;28;19980;-50
2023/07/10 04:28:10;;;;;;;;;;;;;;;16.07;86.73;98161.69;10326500;28;19921;-51
2023/07/10 04:33:11;;;;;;;;;;;;;;;16.13;86.60;98167.72;10325797;28;20031;-50
2023/07/10 04:38:10;;;;;;;;;;;;;;;16.20;86.64;98151.00;10325888;28;19960;-49
2023/07/10 04:43:09;;;;;;;;;;;;;;;16.33;86.38;98152.53;10324287;28;19913;-52
2023/07/10 04:48:08;;;;;;;;;;;;;;;15.95;85.69;98061.56;10325564;28;19964;-52
2023/07/10 04:53:07;;;;;;;;;;;;;;;16.58;85.91;98155.53;10325129;28;20033;-51
2023/07/10 04:58:05;;;;;;;;;;;;;;;16.74;85.57;98156.13;10324222;28;20007;-50
2023/07/10 05:03:05;;;;;;;;;;;;;;;16.90;85.22;98154.09;10323120;28;20023;-50
2023/07/10 05:08:03;;;;;;;;;;;;;;;17.13;84.83;98140.53;10325265;28;20015;-48
2023/07/10 05:13:02;;;;;;;;;;;;;;;17.25;85.20;98158.63;10323468;28;20270;-52
2023/07/10 05:18:01;;;;;;;;;;;;;;;17.32;84.95;98156.72;10325968;28;19939;-51
2023/07/10 05:23:00;;;;;;;;;;;;;;;17.35;85.25;98170.66;10328560;28;19917;-51
2023/07/10 05:27:58;;;;;;;;;;;;;;;17.66;84.34;98166.47;10324002;28;19913;-52
2023/07/10 05:32:57;;;;;;;;;;;;;;;17.87;83.46;98176.53;10326156;28;20016;-49
2023/07/10 05:37:56;;;;;;;;;;;;;;;17.99;81.60;98170.09;10328006;28;19917;-51
2023/07/10 05:42:54;;;;;;;;;;;;;;;18.10;80.96;98161.94;10322675;28;19949;-50
2023/07/10 05:47:53;;;;;;;;;;;;;;;18.35;79.99;98175.34;10317481;28;19924;-51
2023/07/10 05:52:52;;;;;;;;;;;;;;;18.55;80.46;98166.91;10327867;28;19921;-52
2023/07/10 05:57:51;;;;;;;;;;;;;;;18.94;78.47;98167.63;10334880;28;19971;-52
2023/07/10 06:02:49;;;;;;;;;;;;;;;19.11;75.95;98163.66;10335810;28;19917;-52
2023/07/10 06:07:48;;;;;;;;;;;;;;;19.36;76.61;98164.66;10334890;28;19943;-52
2023/07/10 06:12:47;;;;;;;;;;;;;;;19.52;74.13;98164.22;10334827;28;19913;-49
2023/07/10 06:17:45;;;;;;;;;;;;;;;19.73;73.54;98157.47;10333546;28;19916;-52
2023/07/10 06:22:44;;;;;;;;;;;;;;;19.94;72.78;98156.75;10331421;28;19921;-49
2023/07/10 06:27:43;;;;;;;;;;;;;;;20.08;70.45;98164.22;10330859;28;19917;-52
2023/07/10 06:32:42;;;;;;;;;;;;;;;20.26;69.65;98166.25;10330281;28;19913;-52
2023/07/10 06:37:41;;;;;;;;;;;;;;;20.57;68.43;98173.13;10330318;28;19921;-52
2023/07/10 06:42:40;;;;;;;;;;;;;;;20.79;66.72;98172.38;10330741;28;20006;-52
2023/07/10 06:47:43;;;;;;;;;;;;;;;21.02;66.30;98164.50;10329612;28;20020;-51
2023/07/10 06:52:43;;;;;;;;;;;;;;;21.28;64.86;98167.97;10330058;28;19948;-51
2023/07/10 06:57:42;;;;;;;;;;;;;;;21.66;65.37;98155.06;10329622;28;19960;-51
2023/07/10 07:02:42;;;;;;;;;;;;;;;22.06;63.73;98151.75;10330226;28;19967;-50
2023/07/10 07:07:41;;;;;;;;;;;;;;;22.36;60.62;98144.28;10328908;28;20039;-52
2023/07/10 07:12:41;;;;;;;;;;;;;;;22.55;60.29;98138.19;10329067;28;19962;-51
2023/07/10 07:17:39;;;;;;;;;;;;;;;22.78;58.42;98146.03;10328830;28;20464;-52
2023/07/10 07:22:38;;;;;;;;;;;;;;;23.05;57.31;98134.28;10329338;28;20474;-52
2023/07/10 07:27:37;;;;;;;;;;;;;;;23.33;55.37;98144.47;10329033;28;20362;-52
2023/07/10 07:32:35;;;;;;;;;;;;;;;23.48;55.73;98140.25;10331896;28;20415;-53
2023/07/10 07:37:34;;;;;;;;;;;;;;;23.69;53.30;98138.38;10332102;28;20037;-51
2023/07/10 07:42:33;;;;;;;;;;;;;;;23.97;51.95;98140.56;10331376;28;20315;-52
2023/07/10 07:47:32;;;;;;;;;;;;;;;24.06;52.66;98130.34;10331465;28;19949;-52
2023/07/10 07:52:30;;;;;;;;;;;;;;;24.28;51.03;98130.16;10330265;28;19913;-52
2023/07/10 07:57:29;;;;;;;;;;;;;;;24.76;52.18;98125.06;10330914;28;19917;-52
2023/07/10 08:02:28;;;;;;;;;;;;;;;25.27;51.58;98119.69;10330642;28;19912;-53
2023/07/10 08:07:27;;;;;;;;;;;;;;;25.44;48.04;98116.13;10328672;28;19967;-51
2023/07/10 08:12:25;;;;;;;;;;;;;;;25.60;46.89;98095.75;10330394;28;19955;-52
2023/07/10 08:17:24;;;;;;;;;;;;;;;25.66;45.15;98107.81;10330786;28;20038;-52
2023/07/10 08:22:23;;;;;;;;;;;;;;;25.93;44.72;98108.91;10333355;28;20328;-51
2023/07/10 08:27:21;;;;;;;;;;;;;;;26.23;44.14;98108.09;10332589;28;20015;-53
2023/07/10 08:32:21;;;;;;;;;;;;;;;26.38;44.35;98103.66;10332185;28;19974;-51
2023/07/10 08:37:19;;;;;;;;;;;;;;;26.45;45.13;98098.81;10331339;28;20383;-50
2023/07/10 08:42:20;;;;;;;;;;;;;;;26.64;45.19;98093.25;10332396;28;20670;-52
2023/07/10 08:47:32;;;;;;;;;;;;;;;26.65;42.57;98100.25;10329851;28;19960;-52
2023/07/10 08:52:34;;;;;;;;;;;;;;;26.88;43.08;98098.88;10326427;28;19985;-52
2023/07/10 08:57:35;;;;;;;;;;;;;;;26.92;44.23;98098.59;10330922;28;20411;-52
2023/07/10 09:02:36;;;;;;;;;;;;;;;27.02;43.01;98098.88;10325226;28;22923;-51
2023/07/10 09:07:38;;;;;;;;;;;;;;;27.09;42.46;98102.88;10329726;28;19952;-52
2023/07/10 09:12:39;;;;;;;;;;;;;;;27.33;42.11;98092.47;10331311;28;20526;-52
2023/07/10 09:17:44;;;;;;;;;;;;;;;27.64;42.68;98089.69;10329524;28;19967;-51
2023/07/10 09:22:47;;;;;;;;;;;;;;;27.88;42.34;98079.19;10327195;28;19956;-51
2023/07/10 09:27:46;;;;;;;;;;;;;;;28.18;42.19;98079.84;10327058;28;20012;-52
2023/07/10 09:32:45;;;;;;;;;;;;;;;28.28;40.55;98068.53;10326781;28;19960;-51
2023/07/10 09:37:47;;;;;;;;;;;;;;;28.45;40.28;98071.78;10326639;28;19925;-53
2023/07/10 09:42:46;;;;;;;;;;;;;;;28.55;39.02;98055.97;10326799;28;19956;-51
2023/07/10 09:47:50;;;;;;;;;;;;;;;28.58;38.41;98061.06;10325098;28;19912;-52
2023/07/10 09:52:53;;;;;;;;;;;;;;;28.45;38.42;98060.22;10325009;28;19952;-53
2023/07/10 09:57:59;;;;;;;;;;;;;;;28.67;38.61;98055.13;10326047;28;20004;-51
2023/07/10 10:03:07;;;;;;;;;;;;;;;28.98;39.45;98047.59;10326493;28;20388;-52
2023/07/10 10:08:11;;;;;;;;;;;;;;;29.17;39.17;98038.25;10326117;28;19996;-48
2023/07/10 10:13:39;;;;;;;;;;;;;;;29.57;38.24;98035.38;10325836;28;19975;-49
2023/07/10 10:18:47;;;;;;;;;;;;;;;29.47;37.27;98025.34;10316074;28;19964;-52
2023/07/10 10:23:48;;;;;;;;;;;;;;;29.54;36.94;98023.09;10325180;28;19971;-49
2023/07/10 10:28:49;;;;;;;;;;;;;;;29.84;36.15;98019.13;10325302;28;19948;-53
2023/07/10 10:33:54;;;;;;;;;;;;;;;29.95;35.60;98020.97;10326323;28;19957;-53
2023/07/10 10:38:55;;;;;;;;;;;;;;;30.31;35.80;98010.09;10325299;28;19968;-51
2023/07/10 10:44:05;;;;;;;;;;;;;;;30.18;35.79;98014.69;10332932;28;19962;-51
2023/07/10 10:49:10;;;;;;;;;;;;;;;30.37;34.78;98011.44;10332779;28;19953;-52
2023/07/10 10:54:30;;;;;;;;;;;;;;;29.78;33.93;98024.88;10332789;28;19956;-52
2023/07/10 10:59:36;;;;;;;;;;;;;;;29.52;34.78;98008.97;10332469;28;19952;-53
2023/07/10 11:04:38;;;;;;;;;;;;;;;29.71;34.58;98003.09;10332857;28;19952;-52
2023/07/10 11:09:43;;;;;;;;;;;;;;;29.84;33.68;98003.06;10332676;28;19952;-53
2023/07/10 11:14:43;;;;;;;;;;;;;;;29.71;33.13;98003.09;10327685;28;19956;-52
2023/07/10 11:19:43;;;;;;;;;;;;;;;29.57;33.23;98000.59;10331267;28;20000;-50
2023/07/10 11:24:48;;;;;;;;;;;;;;;29.40;33.58;98000.03;10332090;28;19956;-51
2023/07/10 11:29:53;;;;;;;;;;;;;;;29.36;32.08;97993.22;10331874;28;19996;-51
2023/07/10 11:34:53;;;;;;;;;;;;;;;29.50;30.80;97995.69;10324938;28;20044;-51
2023/07/10 11:39:51;;;;;;;;;;;;;;;29.53;30.88;97996.44;10319840;28;20431;-51
2023/07/10 11:44:57;;;;;;;;;;;;;;;29.58;31.24;97980.91;10331520;28;20388;-51
2023/07/10 11:49:56;;;;;;;;;;;;;;;29.80;31.10;97975.66;10331541;28;20047;-52
2023/07/10 11:54:58;;;;;;;;;;;;;;;29.78;30.37;97972.22;10328742;28;19929;-52
2023/07/10 12:00:04;;;;;;;;;;;;;;;30.12;30.79;97975.03;10330588;28;19952;-52
2023/07/10 12:05:23;;;;;;;;;;;;;;;30.45;30.42;97970.72;10329876;28;19964;-49
2023/07/10 12:10:24;;;;;;;;;;;;;;;30.64;29.69;97960.25;10329684;28;19948;-52
2023/07/10 12:15:23;;;;;;;;;;;;;;;30.69;29.40;97963.41;10329909;28;20370;-49
2023/07/10 12:20:24;;;;;;;;;;;;;;;30.70;29.54;97959.75;10330081;28;20668;-52
2023/07/10 12:25:22;;;;;;;;;;;;;;;30.37;28.97;97957.03;10320611;28;20420;-51
2023/07/10 12:30:23;;;;;;;;;;;;;;;30.54;29.72;97946.75;10326719;28;20518;-52
2023/07/10 12:35:29;;;;;;;;;;;;;;;30.73;28.50;97943.44;10325441;28;20011;-52
2023/07/10 12:40:29;;;;;;;;;;;;;;;30.38;29.90;97943.53;10324710;28;19986;-53
2023/07/10 12:45:29;;;;;;;;;;;;;;;30.38;30.27;97948.91;10325793;28;20016;-51
2023/07/10 12:50:34;;;;;;;;;;;;;;;30.76;29.39;97948.53;10325092;28;20007;-52
2023/07/10 12:55:33;;;;;;;;;;;;;;;30.72;29.55;97948.91;10324938;28;20011;-53
2023/07/10 13:01:01;;;;;;;;;;;;;;;30.57;30.56;97952.84;10325848;28;19999;-53
2023/07/10 13:06:04;;;;;;;;;;;;;;;30.57;30.79;97945.63;10317646;28;19988;-52
2023/07/10 13:11:04;;;;;;;;;;;;;;;30.58;31.58;97950.00;10324844;28;19960;-52
2023/07/10 13:16:03;;;;;;;;;;;;;;;30.68;30.90;97936.72;10323636;28;20424;-49
2023/07/10 13:21:04;;;;;;;;;;;;;;;30.41;31.05;97953.19;10324493;28;20007;-52
2023/07/10 13:26:22;;;;;;;;;;;;;;;30.73;31.10;97939.91;10324686;28;19956;-52
2023/07/10 13:31:23;;;;;;;;;;;;;;;30.91;30.11;97942.91;10324857;28;20612;-49
2023/07/10 13:36:23;;;;;;;;;;;;;;;30.74;29.85;97939.75;10324120;28;19995;-50
2023/07/10 13:41:23;;;;;;;;;;;;;;;30.67;30.99;97938.56;10324092;28;19956;-52
2023/07/10 13:46:22;;;;;;;;;;;;;;;30.41;31.42;97947.84;10323990;28;19968;-52
2023/07/10 13:51:22;;;;;;;;;;;;;;;30.23;31.42;97944.75;10321850;28;19920;-52
2023/07/10 13:56:23;;;;;;;;;;;;;;;30.29;32.24;97936.25;10323395;28;20380;-51
2023/07/10 14:01:25;;;;;;;;;;;;;;;30.47;32.10;97931.28;10325177;28;20035;-53
2023/07/10 14:06:23;;;;;;;;;;;;;;;30.70;32.15;97929.41;10323368;28;19948;-51
2023/07/10 14:11:23;;;;;;;;;;;;;;;30.85;31.49;97930.88;10323781;28;19925;-53
2023/07/10 14:16:26;;;;;;;;;;;;;;;30.73;32.82;97926.53;10328052;28;20004;-51
2023/07/10 14:21:25;;;;;;;;;;;;;;;30.50;33.31;97920.31;10331043;28;20378;-51
2023/07/10 14:26:26;;;;;;;;;;;;;;;29.90;32.62;97923.16;10330655;28;20461;-51
2023/07/10 14:31:26;;;;;;;;;;;;;;;29.82;32.33;97920.22;10332151;28;20384;-49
2023/07/10 14:36:26;;;;;;;;;;;;;;;30.07;33.14;97916.53;10330307;28;20032;-52
2023/07/10 14:41:27;;;;;;;;;;;;;;;29.92;32.03;97921.22;10331249;28;19952;-50
2023/07/10 14:46:33;;;;;;;;;;;;;;;29.60;31.56;97914.78;10331345;28;20415;-49
2023/07/10 14:51:32;;;;;;;;;;;;;;;29.53;31.43;97913.56;10330343;28;19963;-52
2023/07/10 14:56:31;;;;;;;;;;;;;;;29.35;31.87;97905.97;10329753;28;20030;-50
2023/07/10 15:01:29;;;;;;;;;;;;;;;29.47;32.59;97899.69;10330407;28;19921;-49
2023/07/10 15:06:30;;;;;;;;;;;;;;;29.56;32.58;97903.50;10329361;28;20304;-52
2023/07/10 15:11:28;;;;;;;;;;;;;;;29.31;33.33;97904.50;10329560;28;19952;-51
2023/07/10 15:16:27;;;;;;;;;;;;;;;29.58;33.15;97900.69;10328496;28;19939;-53
2023/07/10 15:21:27;;;;;;;;;;;;;;;29.27;32.74;97903.00;10330254;28;20430;-52
2023/07/10 15:26:26;;;;;;;;;;;;;;;29.32;32.93;97903.53;10328653;28;20023;-50
2023/07/10 15:31:24;;;;;;;;;;;;;;;29.49;33.26;97916.47;10328796;28;20000;-53
2023/07/10 15:36:23;;;;;;;;;;;;;;;29.23;32.98;97928.25;10328418;28;19960;-53
2023/07/10 15:41:23;;;;;;;;;;;;;;;29.27;32.49;97924.38;10328786;28;19956;-52
2023/07/10 15:46:22;;;;;;;;;;;;;;;29.05;32.18;97919.78;10328436;28;19956;-49
2023/07/10 15:51:27;;;;;;;;;;;;;;;29.03;32.03;97919.03;10328255;28;19913;-51
2023/07/10 15:56:26;;;;;;;;;;;;;;;28.81;32.50;97927.78;10327161;28;20386;-53
2023/07/10 16:01:24;;;;;;;;;;;;;;;28.82;31.32;97924.13;10327677;28;20360;-50
2023/07/10 16:06:23;;;;;;;;;;;;;;;28.94;31.73;97917.88;10327248;28;20399;-53
2023/07/10 16:11:22;;;;;;;;;;;;;;;28.98;32.80;97918.50;10326945;28;19968;-52
2023/07/10 16:16:21;;;;;;;;;;;;;;;28.84;32.08;97922.19;10326937;28;19999;-52
2023/07/10 16:21:20;;;;;;;;;;;;;;;28.96;31.66;97921.28;10327182;28;19924;-53
2023/07/10 16:26:19;;;;;;;;;;;;;;;28.92;32.79;97927.81;10326179;28;19913;-51
2023/07/10 16:31:25;;;;;;;;;;;;;;;28.82;32.22;97922.28;10326532;28;20003;-53
2023/07/10 16:36:23;;;;;;;;;;;;;;;28.67;32.74;97921.59;10325507;28;20031;-52
2023/07/10 16:41:22;;;;;;;;;;;;;;;28.56;32.50;97913.47;10325993;28;20079;-51
2023/07/10 16:46:21;;;;;;;;;;;;;;;28.60;33.18;97909.63;10325107;28;19932;-52
2023/07/10 16:51:25;;;;;;;;;;;;;;;28.60;33.08;97912.31;10326258;28;20004;-52
2023/07/10 16:56:24;;;;;;;;;;;;;;;28.61;32.84;97897.97;10324631;28;20008;-51
2023/07/10 17:01:24;;;;;;;;;;;;;;;28.59;33.15;97907.91;10326247;28;19971;-51
2023/07/10 17:06:25;;;;;;;;;;;;;;;28.73;34.20;97898.09;10325399;28;19952;-51
2023/07/10 17:11:25;;;;;;;;;;;;;;;28.73;36.10;97901.59;10325148;28;20371;-53
2023/07/10 17:16:24;;;;;;;;;;;;;;;28.72;37.00;97905.25;10323594;28;20032;-53
2023/07/10 17:21:23;;;;;;;;;;;;;;;28.58;37.44;97908.88;10324437;28;19928;-51
2023/07/10 17:26:23;;;;;;;;;;;;;;;28.33;38.29;97898.25;10323720;28;19991;-53
2023/07/10 17:31:26;;;;;;;;;;;;;;;28.09;38.47;97901.69;10324149;28;19948;-49
2023/07/10 17:36:25;;;;;;;;;;;;;;;27.87;39.11;97901.44;10324431;28;20007;-49
2023/07/10 17:41:25;;;;;;;;;;;;;;;27.54;39.11;97898.34;10324540;28;19964;-52
2023/07/10 17:46:24;;;;;;;;;;;;;;;27.16;40.49;97914.19;10323863;28;20386;-49
2023/07/10 17:51:29;;;;;;;;;;;;;;;26.80;40.27;97907.63;10330232;28;20380;-52
2023/07/10 17:56:28;;;;;;;;;;;;;;;26.35;41.05;97905.13;10331354;28;20005;-52
2023/07/10 18:01:28;;;;;;;;;;;;;;;25.95;42.08;97906.72;10332626;28;19921;-52
2023/07/10 18:06:27;;;;;;;;;;;;;;;25.61;42.25;97908.75;10331735;28;20379;-51
2023/07/10 18:11:28;;;;;;;;;;;;;;;25.31;43.03;97914.03;10332122;28;20284;-51
2023/07/10 18:16:27;;;;;;;;;;;;;;;24.98;43.97;97925.66;10331452;28;20020;-50
2023/07/10 18:21:28;;;;;;;;;;;;;;;24.56;45.40;97921.78;10331005;28;19921;-53
2023/07/10 18:26:28;;;;;;;;;;;;;;;24.19;46.40;97918.50;10331951;28;20410;-51
2023/07/10 18:31:28;;;;;;;;;;;;;;;23.90;47.18;97924.44;10331817;28;19968;-50
2023/07/10 18:36:28;;;;;;;;;;;;;;;23.73;48.26;97938.59;10330287;28;19967;-50
2023/07/10 18:41:28;;;;;;;;;;;;;;;23.53;49.67;97939.59;10331683;28;20000;-53
2023/07/10 18:46:28;;;;;;;;;;;;;;;23.37;51.47;97950.94;10330374;28;20008;-52
2023/07/10 18:51:29;;;;;;;;;;;;;;;23.16;52.49;97962.56;10330348;28;19979;-52
2023/07/10 18:56:27;;;;;;;;;;;;;;;22.97;53.87;97973.16;10329817;28;20004;-50
2023/07/10 19:01:29;;;;;;;;;;;;;;;22.89;54.80;97975.34;10328577;28;19913;-51
2023/07/10 19:06:33;;;;;;;;;;;;;;;22.75;55.44;97981.28;10328922;28;19967;-49
2023/07/10 19:11:32;;;;;;;;;;;;;;;22.62;55.63;97986.22;10329319;28;19979;-53
2023/07/10 19:16:31;;;;;;;;;;;;;;;22.48;55.46;97992.16;10329100;28;19917;-51
2023/07/10 19:21:30;;;;;;;;;;;;;;;22.36;54.32;97993.56;10328637;28;20190;-51
2023/07/10 19:26:28;;;;;;;;;;;;;;;22.29;53.61;97994.75;10328916;28;19917;-53
2023/07/10 19:31:28;;;;;;;;;;;;;;;22.19;53.13;97993.47;10328864;28;19957;-53
2023/07/10 19:36:27;;;;;;;;;;;;;;;22.09;53.19;98005.38;10327571;28;19992;-51
2023/07/10 19:41:26;;;;;;;;;;;;;;;21.96;53.16;98010.28;10327937;28;19999;-50
2023/07/10 19:46:25;;;;;;;;;;;;;;;21.76;53.59;98004.09;10327692;28;19988;-53
2023/07/10 19:51:24;;;;;;;;;;;;;;;21.63;53.43;98004.66;10327284;28;19974;-50
2023/07/10 19:56:22;;;;;;;;;;;;;;;21.38;58.99;98005.66;10327141;28;20004;-51
2023/07/10 20:01:21;;;;;;;;;;;;;;;21.17;60.85;98009.13;10327620;28;20372;-52
2023/07/10 20:06:25;;;;;;;;;;;;;;;21.04;60.94;98014.06;10326587;28;19917;-52
2023/07/10 20:11:24;;;;;;;;;;;;;;;20.93;62.36;98017.09;10327084;28;20008;-51
2023/07/10 20:16:25;;;;;;;;;;;;;;;20.76;63.35;98016.88;10326211;28;19917;-51
2023/07/10 20:21:24;;;;;;;;;;;;;;;20.70;63.76;98013.56;10326672;28;20033;-51
2023/07/10 20:26:23;;;;;;;;;;;;;;;20.63;63.85;98020.00;10326492;28;19943;-52
2023/07/10 20:31:22;;;;;;;;;;;;;;;20.54;65.40;98009.78;10325613;28;20007;-49
2023/07/10 20:36:24;;;;;;;;;;;;;;;20.47;65.72;98011.78;10326003;28;20016;-51
2023/07/10 20:41:23;;;;;;;;;;;;;;;20.31;68.47;98007.97;10326141;28;20474;-49
2023/07/10 20:46:23;;;;;;;;;;;;;;;20.22;68.62;98009.16;10325266;28;20004;-51
2023/07/10 20:51:23;;;;;;;;;;;;;;;20.12;69.13;98014.78;10326377;28;20011;-51
2023/07/10 20:56:26;;;;;;;;;;;;;;;20.03;70.24;98013.34;10324990;28;20008;-52
2023/07/10 21:01:27;;;;;;;;;;;;;;;19.89;71.68;98013.84;10325438;28;20372;-51
2023/07/10 21:06:28;;;;;;;;;;;;;;;19.83;71.05;98016.66;10324289;28;19964;-53
2023/07/10 21:11:31;;;;;;;;;;;;;;;19.78;71.39;98016.81;10326358;28;19944;-50
2023/07/10 21:16:31;;;;;;;;;;;;;;;19.73;72.13;98020.53;10324791;28;20963;-49
2023/07/10 21:21:30;;;;;;;;;;;;;;;19.56;73.36;98021.09;10324358;28;20285;-49
2023/07/10 21:26:31;;;;;;;;;;;;;;;19.47;73.36;98026.63;10323824;28;20762;-49
2023/07/10 21:31:30;;;;;;;;;;;;;;;19.42;73.02;98025.00;10323965;28;20000;-52
2023/07/10 21:36:28;;;;;;;;;;;;;;;19.36;73.48;98035.72;10322587;28;19917;-49
2023/07/10 21:41:29;;;;;;;;;;;;;;;19.21;74.42;98028.31;10324253;28;20000;-51
2023/07/10 21:46:32;;;;;;;;;;;;;;;19.05;75.63;98025.31;10323768;28;20043;-50
2023/07/10 21:51:31;;;;;;;;;;;;;;;19.05;74.97;98029.72;10322726;28;19953;-51
2023/07/10 21:56:29;;;;;;;;;;;;;;;18.96;75.08;98020.31;10323374;28;20023;-50
2023/07/10 22:01:29;;;;;;;;;;;;;;;18.89;75.91;98022.28;10323830;28;20012;-51
2023/07/10 22:06:28;;;;;;;;;;;;;;;18.75;77.20;98021.81;10322606;28;20011;-49
2023/07/10 22:11:30;;;;;;;;;;;;;;;18.74;77.37;98028.88;10324007;28;20362;-51
2023/07/10 22:16:29;;;;;;;;;;;;;;;18.57;78.08;98021.44;10323688;28;20012;-50
2023/07/10 22:21:30;;;;;;;;;;;;;;;18.54;77.62;98016.25;10323352;28;19948;-50
2023/07/10 22:26:29;;;;;;;;;;;;;;;18.48;77.60;98019.09;10323704;28;20404;-50
2023/07/10 22:31:29;;;;;;;;;;;;;;;18.43;77.85;98018.31;10323654;28;19960;-52
2023/07/10 22:36:28;;;;;;;;;;;;;;;18.36;78.20;98022.03;10326214;28;19956;-50
2023/07/10 22:41:29;;;;;;;;;;;;;;;18.33;78.28;98022.97;10330593;28;19968;-51
2023/07/10 22:46:29;;;;;;;;;;;;;;;18.35;77.96;98030.84;10331140;28;20055;-52
2023/07/10 22:51:31;;;;;;;;;;;;;;;18.31;77.79;98029.19;10329933;28;19928;-51
2023/07/10 22:56:31;;;;;;;;;;;;;;;18.26;78.29;98024.06;10329531;28;20047;-50
2023/07/10 23:01:30;;;;;;;;;;;;;;;18.19;78.64;98018.09;10330410;28;20103;-51
2023/07/10 23:06:31;;;;;;;;;;;;;;;18.12;78.86;98029.69;10330080;28;20016;-52
2023/07/10 23:11:30;;;;;;;;;;;;;;;18.13;78.65;98025.31;10329855;28;20420;-53
2023/07/10 23:16:28;;;;;;;;;;;;;;;18.05;79.66;98029.91;10329145;28;20473;-49
2023/07/10 23:21:28;;;;;;;;;;;;;;;18.05;79.09;98028.13;10329037;28;20011;-50
2023/07/10 23:26:27;;;;;;;;;;;;;;;17.97;79.47;98030.09;10329302;28;20004;-51
2023/07/10 23:31:27;;;;;;;;;;;;;;;17.98;79.26;98021.31;10329024;28;19979;-50
2023/07/10 23:36:27;;;;;;;;;;;;;;;17.91;79.59;98035.50;10328755;28;20052;-51
2023/07/10 23:41:25;;;;;;;;;;;;;;;17.79;81.01;98025.34;10328641;28;20368;-48
2023/07/10 23:46:24;;;;;;;;;;;;;;;17.72;81.29;98028.06;10327518;28;20339;-50
2023/07/10 23:51:23;;;;;;;;;;;;;;;17.72;81.21;98019.34;10327523;28;19960;-51
2023/07/10 23:56:22;;;;;;;;;;;;;;;17.72;81.20;98019.34;10327915;28;19924;-51
